Terminal Aerodrome Forecast
Issued by NWS

Home | Current Version | Previous Version | Text Only | Print | Product List | Glossary On
Versions: 1 2 3 4 5 6 7 8 9 10 11 12 13 14 15 16 17 18
000
FTUS44 KOHX 270500
TAFCKV
TAF
KCKV 270536Z 2706/2806 12004KT P6SM OVC040
      TEMPO 2706/2708 BKN015
     FM270800 27003KT P6SM -SHSN OVC015
     FM271300 34006KT P6SM OVC015
     FM271900 34007KT P6SM OVC025
     FM280300 35003KT P6SM SCT025=

USA.gov is the U.S. government's official web portal to all federal, state and local government web resources and services.